createdAt,value
2022-10-13T00:00:53.092Z,15.30
2022-10-13T00:03:40.457Z,15.20
2022-10-13T00:06:40.442Z,15.20
2022-10-13T00:09:29.424Z,15.20
2022-10-13T00:12:10.651Z,15.30
2022-10-13T00:14:58.510Z,15.40
2022-10-13T00:17:39.743Z,15.50
2022-10-13T00:20:27.433Z,15.40
2022-10-13T00:23:16.439Z,15.40
2022-10-13T00:26:05.678Z,15.10
2022-10-13T00:28:54.628Z,15.10
2022-10-13T00:31:42.680Z,15.20
2022-10-13T00:34:23.455Z,15.30
2022-10-13T00:37:11.668Z,15.20
2022-10-13T00:39:52.478Z,15.20
2022-10-13T00:42:41.700Z,15.10
2022-10-13T00:45:29.469Z,15.10
2022-10-13T00:48:17.677Z,15.00
2022-10-13T00:50:59.468Z,15.00
2022-10-13T00:53:47.908Z,15.00
2022-10-13T00:56:31.502Z,15.00
2022-10-13T00:59:19.154Z,15.10
2022-10-13T01:02:14.548Z,15.10
2022-10-13T01:05:05.484Z,15.00
2022-10-13T01:07:54.613Z,14.90
2022-10-13T01:10:41.486Z,14.80
2022-10-13T01:13:30.712Z,14.90
2022-10-13T01:16:18.556Z,15.00
2022-10-13T01:19:12.747Z,15.00
2022-10-13T01:22:02.517Z,15.00
2022-10-13T01:24:54.677Z,15.00
2022-10-13T01:27:52.541Z,15.00
2022-10-13T01:30:42.689Z,15.00
2022-10-13T01:33:43.454Z,15.20
2022-10-13T01:36:33.643Z,15.50
2022-10-13T01:39:16.536Z,15.80
2022-10-13T01:42:11.518Z,15.60
2022-10-13T01:44:56.575Z,15.60
2022-10-13T01:47:46.678Z,15.50
2022-10-13T01:50:28.490Z,15.50
2022-10-13T01:53:18.051Z,15.50
2022-10-13T01:56:02.500Z,15.60
2022-10-13T01:58:50.638Z,15.60
2022-10-13T02:01:47.541Z,15.60
2022-10-13T02:04:44.630Z,15.60
2022-10-13T02:07:42.489Z,15.60
2022-10-13T02:10:32.617Z,15.50
2022-10-13T02:13:28.486Z,15.20
2022-10-13T02:16:16.692Z,15.00
2022-10-13T02:19:05.575Z,15.30
2022-10-13T02:21:55.648Z,15.20
2022-10-13T02:24:37.556Z,15.30
2022-10-13T02:27:25.735Z,15.40
2022-10-13T02:30:07.519Z,15.40
2022-10-13T02:32:55.650Z,15.50
2022-10-13T02:35:39.526Z,15.40
2022-10-13T02:38:28.702Z,15.30
2022-10-13T02:41:10.484Z,15.10
2022-10-13T02:43:58.646Z,15.20
2022-10-13T02:46:55.497Z,15.50
2022-10-13T02:49:43.685Z,15.50
2022-10-13T02:52:31.557Z,15.50
2022-10-13T02:55:20.653Z,15.30
2022-10-13T02:58:10.577Z,15.50
2022-10-13T03:00:52.100Z,15.50
2022-10-13T03:03:39.517Z,15.30
2022-10-13T03:06:34.483Z,15.20
2022-10-13T03:09:31.586Z,15.40
2022-10-13T03:12:21.015Z,15.40
2022-10-13T03:15:01.523Z,15.40
2022-10-13T03:17:49.725Z,15.30
2022-10-13T03:20:31.527Z,15.40
2022-10-13T03:23:19.796Z,15.30
2022-10-13T03:26:01.520Z,15.20
2022-10-13T03:28:51.212Z,15.40
2022-10-13T03:31:32.556Z,15.30
2022-10-13T03:34:21.082Z,15.10
2022-10-13T03:37:09.520Z,15.30
2022-10-13T03:39:57.893Z,15.50
2022-10-13T03:42:45.528Z,15.50
2022-10-13T03:45:34.748Z,15.30
2022-10-13T03:48:29.532Z,15.40
2022-10-13T03:51:18.724Z,15.50
2022-10-13T03:54:07.562Z,15.50
2022-10-13T03:56:55.780Z,15.30
2022-10-13T03:59:37.602Z,14.90
2022-10-13T04:02:26.740Z,14.90
2022-10-13T04:05:08.532Z,15.10
2022-10-13T04:08:03.606Z,15.10
2022-10-13T04:10:51.539Z,15.30
2022-10-13T04:13:32.837Z,15.40
2022-10-13T04:16:21.565Z,15.40
2022-10-13T04:19:06.746Z,15.20
2022-10-13T04:22:01.566Z,15.20
2022-10-13T04:24:50.742Z,15.20
2022-10-13T04:27:45.570Z,15.20
2022-10-13T04:30:33.759Z,15.30
2022-10-13T04:33:21.584Z,15.00
2022-10-13T04:36:12.534Z,14.90
2022-10-13T04:38:57.737Z,14.90
2022-10-13T04:41:54.538Z,15.30
2022-10-13T04:44:37.918Z,15.20
2022-10-13T04:47:26.553Z,15.10
2022-10-13T04:50:14.689Z,14.90
2022-10-13T04:53:19.062Z,15.20
2022-10-13T04:56:09.212Z,15.50
2022-10-13T04:58:57.581Z,15.50
2022-10-13T05:01:45.692Z,15.70
2022-10-13T05:04:26.546Z,15.70
2022-10-13T05:07:21.587Z,15.80
2022-10-13T05:10:10.553Z,15.60
2022-10-13T05:12:51.790Z,15.50
2022-10-13T05:15:39.555Z,15.30
2022-10-13T05:18:21.797Z,15.40
2022-10-13T05:21:15.642Z,15.40
2022-10-13T05:24:03.584Z,15.30
2022-10-13T05:26:53.764Z,15.30
2022-10-13T05:29:35.576Z,15.00
2022-10-13T05:32:23.800Z,14.80
2022-10-13T05:35:05.544Z,14.90
2022-10-13T05:37:54.775Z,14.90
2022-10-13T05:40:36.559Z,14.80
2022-10-13T05:43:25.672Z,14.80
2022-10-13T05:46:07.616Z,15.00
2022-10-13T05:48:55.776Z,14.90
2022-10-13T05:51:46.570Z,14.80
2022-10-13T05:54:35.800Z,15.00
2022-10-13T05:57:26.604Z,15.30
2022-10-13T06:00:17.795Z,15.00
2022-10-13T06:03:18.689Z,15.10
2022-10-13T06:06:13.583Z,15.20
2022-10-13T06:09:08.569Z,15.10
2022-10-13T06:11:58.463Z,15.00
2022-10-13T06:14:55.662Z,14.80
2022-10-13T06:17:38.924Z,14.80
2022-10-13T06:20:26.623Z,14.80
2022-10-13T06:23:07.806Z,14.90
2022-10-13T06:25:55.574Z,14.90
2022-10-13T06:28:37.820Z,15.10
2022-10-13T06:31:25.602Z,15.00
2022-10-13T06:34:08.725Z,14.90
2022-10-13T06:37:05.592Z,14.80
2022-10-13T06:39:53.723Z,15.10
2022-10-13T06:42:41.611Z,15.20
2022-10-13T06:45:29.935Z,15.30
2022-10-13T06:48:18.587Z,15.30
2022-10-13T06:51:09.813Z,15.20
2022-10-13T06:53:58.696Z,15.20
2022-10-13T06:56:47.858Z,15.40
2022-10-13T06:59:29.591Z,15.30
2022-10-13T07:02:18.028Z,15.30
2022-10-13T07:04:59.589Z,15.60
2022-10-13T07:07:55.660Z,15.60
2022-10-13T07:10:44.608Z,15.60
2022-10-13T07:13:36.341Z,15.60
2022-10-13T07:16:20.640Z,15.60
2022-10-13T07:19:08.865Z,15.50
2022-10-13T07:21:57.608Z,15.60
2022-10-13T07:24:46.925Z,15.40
2022-10-13T07:27:36.604Z,15.50
2022-10-13T07:30:24.823Z,15.40
2022-10-13T07:33:12.612Z,15.30
2022-10-13T07:35:53.962Z,15.40
2022-10-13T07:38:41.598Z,15.60
2022-10-13T07:41:30.607Z,15.60
2022-10-13T07:44:12.829Z,15.60
2022-10-13T07:47:07.678Z,15.50
2022-10-13T07:49:56.769Z,15.40
2022-10-13T07:52:44.672Z,15.60
2022-10-13T07:55:32.808Z,15.60
2022-10-13T07:58:22.587Z,15.50
2022-10-13T08:01:10.623Z,15.50
2022-10-13T08:03:51.824Z,15.40
2022-10-13T08:06:46.732Z,15.50
2022-10-13T08:09:34.835Z,15.80
2022-10-13T08:12:22.882Z,15.60
2022-10-13T08:15:11.892Z,15.80
2022-10-13T08:17:59.622Z,15.80
2022-10-13T08:20:47.833Z,16.10
2022-10-13T08:23:36.624Z,16.10
2022-10-13T08:26:25.856Z,16.00
2022-10-13T08:29:22.440Z,15.90
2022-10-13T08:32:11.876Z,15.80
2022-10-13T08:34:53.692Z,15.90
2022-10-13T08:37:41.836Z,16.00
2022-10-13T08:40:24.698Z,16.20
2022-10-13T08:43:13.801Z,16.60
2022-10-13T08:45:56.729Z,16.60
2022-10-13T08:48:48.809Z,16.50
2022-10-13T08:51:44.711Z,16.60
2022-10-13T08:54:33.898Z,16.80
2022-10-13T08:57:23.932Z,16.60
2022-10-13T09:00:11.900Z,16.60
2022-10-13T09:03:03.650Z,16.60
2022-10-13T09:05:52.452Z,16.40
2022-10-13T09:08:41.628Z,16.30
2022-10-13T09:11:29.815Z,16.20
2022-10-13T09:14:19.690Z,16.10
2022-10-13T09:17:21.070Z,16.00
2022-10-13T09:20:06.648Z,16.00
2022-10-13T09:23:07.813Z,16.20
2022-10-13T09:25:50.767Z,16.30
2022-10-13T09:28:39.943Z,16.40
2022-10-13T09:31:23.681Z,16.40
2022-10-13T09:34:20.875Z,16.50
2022-10-13T09:37:20.649Z,16.60
2022-10-13T09:40:20.033Z,16.60
2022-10-13T09:43:08.831Z,16.70
2022-10-13T09:45:56.850Z,16.60
2022-10-13T09:48:48.642Z,16.50
2022-10-13T09:51:45.038Z,16.60
2022-10-13T09:54:33.698Z,16.50
2022-10-13T09:57:26.777Z,16.80
2022-10-13T10:00:11.708Z,16.90
2022-10-13T10:03:03.043Z,16.90
2022-10-13T10:05:48.686Z,17.10
2022-10-13T10:09:02.141Z,16.90
2022-10-13T10:12:02.730Z,16.90
2022-10-13T10:14:51.830Z,16.90
2022-10-13T10:17:42.678Z,17.10
2022-10-13T10:20:57.814Z,17.30
2022-10-13T10:23:53.670Z,17.70
2022-10-13T10:26:48.897Z,17.80
2022-10-13T10:29:40.637Z,17.70
2022-10-13T10:32:33.824Z,17.60
2022-10-13T10:35:23.651Z,17.40
2022-10-13T10:38:11.808Z,17.30
2022-10-13T10:41:03.711Z,17.30
2022-10-13T10:43:54.214Z,17.30
2022-10-13T10:46:49.691Z,16.90
2022-10-13T10:49:34.651Z,17.00
2022-10-13T10:52:25.703Z,16.90
2022-10-13T10:55:18.872Z,16.50
2022-10-13T10:58:24.004Z,16.40
2022-10-13T11:01:13.889Z,16.10
2022-10-13T11:04:08.714Z,15.90
2022-10-13T11:07:10.691Z,16.10
2022-10-13T11:10:23.738Z,15.90
2022-10-13T11:13:38.690Z,16.00
2022-10-13T11:16:37.963Z,15.90
2022-10-13T11:19:35.723Z,15.60
2022-10-13T11:22:26.988Z,15.50
2022-10-13T11:25:31.700Z,15.80
2022-10-13T11:28:52.978Z,15.70
2022-10-13T11:31:45.790Z,15.60
2022-10-13T11:34:34.933Z,15.80
2022-10-13T11:37:30.757Z,15.80
2022-10-13T11:40:27.843Z,15.80
2022-10-13T11:43:36.693Z,15.90
2022-10-13T11:46:34.699Z,16.30
2022-10-13T11:49:22.932Z,16.10
2022-10-13T11:52:23.789Z,16.10
2022-10-13T11:55:13.940Z,16.30
2022-10-13T11:58:03.707Z,16.30
2022-10-13T12:01:00.890Z,16.40
2022-10-13T12:03:50.781Z,16.50
2022-10-13T12:06:46.692Z,16.40
2022-10-13T12:09:35.710Z,16.40
2022-10-13T12:12:22.647Z,16.50
2022-10-13T12:15:25.704Z,16.70
2022-10-13T12:18:08.941Z,16.60
2022-10-13T12:20:59.706Z,16.60
2022-10-13T12:23:42.914Z,16.60
2022-10-13T12:26:31.705Z,16.60
2022-10-13T12:29:18.297Z,16.70
2022-10-13T12:32:12.789Z,16.50
2022-10-13T12:34:56.515Z,16.40
2022-10-13T12:37:46.793Z,16.20
2022-10-13T12:40:34.931Z,16.40
2022-10-13T12:43:23.717Z,16.20
2022-10-13T12:46:11.861Z,16.40
2022-10-13T12:48:59.738Z,16.60
2022-10-13T12:51:50.348Z,16.70
2022-10-13T12:54:32.728Z,16.60
2022-10-13T12:57:24.998Z,16.50
2022-10-13T13:00:06.769Z,16.50
2022-10-13T13:02:57.989Z,16.60
2022-10-13T13:05:50.757Z,16.80
2022-10-13T13:08:48.788Z,17.10
2022-10-13T13:11:48.879Z,17.20
2022-10-13T13:14:41.924Z,17.00
2022-10-13T13:17:57.190Z,17.00
2022-10-13T13:20:43.959Z,16.90
2022-10-13T13:23:31.783Z,17.00
2022-10-13T13:26:21.906Z,16.90
2022-10-13T13:29:10.728Z,16.70
2022-10-13T13:31:58.910Z,16.70
2022-10-13T13:34:40.823Z,16.60
2022-10-13T13:37:41.999Z,16.50
2022-10-13T13:40:23.737Z,16.10
2022-10-13T13:43:12.922Z,16.20
2022-10-13T13:45:54.790Z,15.90
2022-10-13T13:48:42.974Z,16.10
2022-10-13T13:51:24.751Z,16.20
2022-10-13T13:54:12.970Z,16.20
2022-10-13T13:57:00.817Z,16.10
2022-10-13T13:59:50.004Z,16.00
2022-10-13T14:02:37.803Z,15.80
2022-10-13T14:05:25.945Z,15.90
2022-10-13T14:08:13.792Z,15.70
2022-10-13T14:11:01.956Z,15.80
2022-10-13T14:13:50.749Z,16.00
2022-10-13T14:16:43.156Z,16.30
2022-10-13T14:19:24.758Z,16.20
2022-10-13T14:22:12.954Z,16.30
2022-10-13T14:24:54.767Z,16.20
2022-10-13T14:27:43.018Z,16.20
2022-10-13T14:30:24.763Z,16.30
2022-10-13T14:33:14.005Z,16.20
2022-10-13T14:35:55.741Z,16.60
2022-10-13T14:38:43.969Z,16.60
2022-10-13T14:41:25.792Z,16.50
2022-10-13T14:44:14.127Z,16.50
2022-10-13T14:47:01.844Z,16.80
2022-10-13T14:49:50.931Z,16.70
2022-10-13T14:52:38.785Z,16.70
2022-10-13T14:55:26.920Z,16.80
2022-10-13T14:58:14.786Z,16.70
2022-10-13T15:00:56.582Z,16.70
2022-10-13T15:03:43.853Z,16.60
2022-10-13T15:06:34.055Z,16.60
2022-10-13T15:09:38.762Z,16.50
2022-10-13T15:12:37.011Z,16.40
2022-10-13T15:15:18.836Z,16.20
2022-10-13T15:18:08.035Z,16.10
2022-10-13T15:20:52.836Z,16.20
2022-10-13T15:23:48.796Z,16.20
2022-10-13T15:26:36.959Z,16.20
2022-10-13T15:29:24.755Z,16.40
2022-10-13T15:32:17.853Z,16.30
2022-10-13T15:35:08.782Z,16.10
2022-10-13T15:37:50.077Z,16.40
2022-10-13T15:40:39.845Z,16.30
2022-10-13T15:43:22.052Z,16.30
2022-10-13T15:46:10.798Z,16.30
2022-10-13T15:48:53.193Z,16.20
2022-10-13T15:51:47.889Z,16.60
2022-10-13T15:54:36.013Z,16.30
2022-10-13T15:57:25.797Z,16.10
2022-10-13T16:00:15.010Z,16.20
2022-10-13T16:03:03.811Z,16.10
2022-10-13T16:05:51.908Z,16.50
2022-10-13T16:08:40.156Z,16.30
2022-10-13T16:11:29.017Z,16.50
2022-10-13T16:14:18.860Z,16.30
2022-10-13T16:17:07.013Z,16.50
2022-10-13T16:19:48.800Z,16.30
2022-10-13T16:22:37.117Z,16.30
2022-10-13T16:25:18.830Z,16.30
2022-10-13T16:28:07.078Z,16.30
2022-10-13T16:30:49.932Z,16.20
2022-10-13T16:33:37.989Z,16.10
2022-10-13T16:36:19.801Z,15.90
2022-10-13T16:39:07.936Z,16.10
2022-10-13T16:41:55.822Z,16.20
2022-10-13T16:44:43.998Z,16.10
2022-10-13T16:47:33.853Z,16.10
2022-10-13T16:50:22.015Z,16.20
2022-10-13T16:53:09.890Z,16.30
2022-10-13T16:55:58.051Z,16.10
2022-10-13T16:58:49.815Z,16.00
2022-10-13T17:01:38.059Z,15.60
2022-10-13T17:04:26.876Z,15.80
2022-10-13T17:07:22.038Z,16.00
2022-10-13T17:10:10.884Z,15.90
2022-10-13T17:12:53.051Z,16.10
2022-10-13T17:15:40.841Z,16.10
2022-10-13T17:18:21.929Z,16.10
2022-10-13T17:21:11.845Z,16.00
2022-10-13T17:23:53.062Z,15.80
2022-10-13T17:26:40.851Z,15.80
2022-10-13T17:29:22.063Z,15.90
2022-10-13T17:32:16.862Z,16.00
2022-10-13T17:35:05.054Z,15.80
2022-10-13T17:37:54.826Z,15.80
2022-10-13T17:40:43.076Z,15.70
2022-10-13T17:43:30.843Z,15.80
2022-10-13T17:46:37.519Z,16.00
2022-10-13T17:49:26.845Z,15.90
2022-10-13T17:52:15.305Z,16.20
2022-10-13T17:54:58.834Z,16.20
2022-10-13T17:57:47.047Z,16.10
2022-10-13T18:00:54.102Z,16.10
2022-10-13T18:03:36.033Z,15.90
2022-10-13T18:06:24.965Z,16.30
2022-10-13T18:09:20.889Z,16.20
2022-10-13T18:12:16.843Z,16.10
2022-10-13T18:14:58.376Z,16.10
2022-10-13T18:17:45.984Z,16.10
2022-10-13T18:20:35.151Z,16.30
2022-10-13T18:23:22.888Z,16.20
2022-10-13T18:26:12.013Z,16.10
2022-10-13T18:29:02.916Z,16.20
2022-10-13T18:31:51.094Z,16.10
2022-10-13T18:34:32.852Z,16.20
2022-10-13T18:37:21.374Z,16.20
2022-10-13T18:40:01.869Z,16.00
2022-10-13T18:42:54.574Z,16.00
2022-10-13T18:45:37.920Z,16.00
2022-10-13T18:48:26.170Z,16.00
2022-10-13T18:51:14.957Z,16.00
2022-10-13T18:53:57.177Z,16.00
2022-10-13T18:56:52.042Z,15.90
2022-10-13T18:59:34.217Z,16.20
2022-10-13T19:02:27.901Z,16.30
2022-10-13T19:05:16.050Z,16.40
2022-10-13T19:08:07.923Z,16.20
2022-10-13T19:10:57.090Z,16.10
2022-10-13T19:13:45.862Z,15.90
2022-10-13T19:16:35.344Z,16.00
2022-10-13T19:19:17.949Z,16.10
2022-10-13T19:22:10.113Z,16.10
2022-10-13T19:24:51.998Z,16.30
2022-10-13T19:27:49.867Z,16.50
2022-10-13T19:30:32.956Z,16.40
2022-10-13T19:33:21.014Z,16.40
2022-10-13T19:36:03.933Z,16.30
2022-10-13T19:38:52.054Z,16.30
2022-10-13T19:41:34.923Z,16.40
2022-10-13T19:44:24.094Z,16.40
2022-10-13T19:47:11.954Z,16.40
2022-10-13T19:50:00.143Z,16.50
2022-10-13T19:52:49.864Z,16.50
2022-10-13T19:55:38.050Z,16.40
2022-10-13T19:58:25.981Z,16.40
2022-10-13T20:01:14.204Z,16.60
2022-10-13T20:04:03.078Z,16.60
2022-10-13T20:06:53.222Z,16.30
2022-10-13T20:09:49.004Z,16.10
2022-10-13T20:12:37.058Z,16.10
2022-10-13T20:15:19.078Z,16.10
2022-10-13T20:18:13.464Z,16.20
2022-10-13T20:20:54.886Z,16.00
2022-10-13T20:23:43.101Z,16.00
2022-10-13T20:26:25.855Z,16.10
2022-10-13T20:29:20.947Z,16.20
2022-10-13T20:32:09.061Z,16.30
2022-10-13T20:34:54.796Z,16.30
2022-10-13T20:37:43.166Z,16.50
2022-10-13T20:40:27.903Z,16.20
2022-10-13T20:43:17.176Z,16.10
2022-10-13T20:46:08.886Z,16.30
2022-10-13T20:52:04.895Z,16.20
2022-10-13T20:54:53.009Z,16.30
2022-10-13T20:57:41.937Z,16.30
2022-10-13T21:00:31.089Z,16.20
2022-10-13T21:03:18.998Z,16.40
2022-10-13T21:06:09.042Z,16.50
2022-10-13T21:08:58.916Z,16.40
2022-10-13T21:11:47.228Z,16.30
2022-10-13T21:14:28.893Z,16.10
2022-10-13T21:17:18.161Z,16.10
2022-10-13T21:19:59.895Z,16.30
2022-10-13T21:22:48.057Z,16.40
2022-10-13T21:25:29.958Z,16.20
2022-10-13T21:28:18.241Z,16.30
2022-10-13T21:31:06.942Z,16.40
2022-10-13T21:33:57.153Z,16.40
2022-10-13T21:36:51.936Z,16.60
2022-10-13T21:39:33.249Z,16.40
2022-10-13T21:42:20.933Z,16.20
2022-10-13T21:45:09.096Z,16.20
2022-10-13T21:47:57.942Z,16.50
2022-10-13T21:50:47.157Z,16.40
2022-10-13T21:53:34.962Z,16.10
2022-10-13T21:56:23.106Z,16.00
2022-10-13T21:59:10.904Z,16.10
2022-10-13T22:01:59.131Z,16.40
2022-10-13T22:04:40.896Z,16.50
2022-10-13T22:07:36.931Z,16.20
2022-10-13T22:10:31.925Z,16.60
2022-10-13T22:13:20.103Z,16.40
2022-10-13T22:16:09.946Z,16.60
2022-10-13T22:18:52.052Z,16.70
2022-10-13T22:21:47.927Z,16.70
2022-10-13T22:24:38.052Z,16.80
2022-10-13T22:27:25.930Z,16.60
2022-10-13T22:30:14.055Z,16.60
2022-10-13T22:33:02.005Z,16.50
2022-10-13T22:35:50.174Z,16.80
2022-10-13T22:38:37.911Z,16.80
2022-10-13T22:41:27.128Z,16.90
2022-10-13T22:44:15.928Z,16.90
2022-10-13T22:47:04.321Z,17.00
2022-10-13T22:49:45.932Z,16.60
2022-10-13T22:52:40.954Z,16.60
2022-10-13T22:55:29.087Z,16.60
2022-10-13T22:58:19.007Z,16.70
2022-10-13T23:01:13.125Z,16.60
2022-10-13T23:04:01.948Z,16.50
2022-10-13T23:06:50.090Z,16.60
2022-10-13T23:09:45.048Z,16.70
2022-10-13T23:12:33.157Z,16.90
2022-10-13T23:15:16.946Z,16.90
2022-10-13T23:18:05.113Z,16.90
2022-10-13T23:20:46.945Z,16.90
2022-10-13T23:23:35.127Z,16.90
2022-10-13T23:26:17.950Z,16.90
2022-10-13T23:29:07.094Z,16.80
2022-10-13T23:31:56.988Z,16.80
2022-10-13T23:34:45.176Z,16.60
2022-10-13T23:37:36.921Z,16.90
2022-10-13T23:40:25.079Z,17.00
2022-10-13T23:43:19.930Z,17.10
2022-10-13T23:46:01.543Z,17.00
2022-10-13T23:48:50.943Z,16.80
2022-10-13T23:51:39.137Z,16.80
2022-10-13T23:54:20.958Z,16.80
2022-10-13T23:57:09.191Z,16.60
2022-10-13T23:59:49.958Z,16.70
